KBHM/BHM METAR and TAF weather

Enter ICAO airport designator
Station Type Date Time Source
KBHM METAR 2022/07/01 00:53 UTC NOAA

KBHM 010053Z 00000KT 10SM SCT120 OVC250 28/21 A3014 RMK AO2 SLP197 T02780211


Station Type Date Time Source
KBHM Decoded METAR 2022/07/01 00:53 UTC NOAA

BIRMINGHAM INT'L AIRPORT, AL, United States (KBHM) 33-34N 086-45W 197M
Jun 30, 2022 - 08:53 PM EDT / 2022.07.01 0053 UTC
Wind: Calm:0
Visibility: 10 mile(s):0
Sky conditions: overcast
Temperature: 82.0 F (27.8 C)
Dew Point: 70.0 F (21.1 C)
Relative Humidity: 66%
Pressure (altimeter): 30.14 in. Hg (1020 hPa)
ob: KBHM 010053Z 00000KT 10SM SCT120 OVC250 28/21 A3014 RMK AO2 SLP197 T02780211
cycle: 1

Station Type Date Time Source
KBHM TAF 2022/06/30 22:09 UTC NOAA

TAF
AMD KBHM 302207Z 3022/0118 16007KT P6SM VCSH SCT040
FM010300 VRB03KT P6SM BKN040 BKN250
FM011500 16005KT P6SM FEW035 SCT250

Example: see airport list